Time;durP1;ratioP1;P1;durP2;ratioP2;P2;SDS_P1;SDS_P2;PMS_P1;PMS_P2;Temp;Humidity;BMP_temperature;BMP_pressure;BME280_temperature;BME280_humidity;BME280_pressure;Samples;Min_cycle;Max_cycle;Signal;HPM_P1;HPM_P2
2023/03/07 00:00:13;;;;;;;9.52;5.90;;;;;;;;;;5049746;28;20049;-72
2023/03/07 00:02:39;;;;;;;10.55;5.35;;;;;;;;;;5053321;28;20044;-72
2023/03/07 00:05:06;;;;;;;10.93;5.47;;;;;;;;;;5053252;28;20044;-72
2023/03/07 00:07:32;;;;;;;9.00;4.57;;;;;;;;;;5052778;28;20542;-72
2023/03/07 00:09:59;;;;;;;7.47;4.57;;;;;;;;;;5052934;28;20453;-72
2023/03/07 00:12:25;;;;;;;8.50;4.10;;;;;;;;;;5053015;28;20041;-72
2023/03/07 00:14:51;;;;;;;6.70;3.78;;;;;;;;;;5052274;28;20139;-72
2023/03/07 00:17:17;;;;;;;8.05;3.25;;;;;;;;;;5036581;28;20634;-72
2023/03/07 00:19:43;;;;;;;4.95;3.45;;;;;;;;;;5052916;28;20049;-72
2023/03/07 00:22:10;;;;;;;4.18;2.35;;;;;;;;;;5051934;28;20194;-72
2023/03/07 00:24:36;;;;;;;3.13;2.30;;;;;;;;;;5052033;28;20075;-72
2023/03/07 00:27:03;;;;;;;6.10;2.08;;;;;;;;;;5072740;28;20244;-72
2023/03/07 00:29:29;;;;;;;6.97;2.00;;;;;;;;;;5072014;28;20040;-72
2023/03/07 00:31:55;;;;;;;5.18;2.08;;;;;;;;;;5072859;28;20498;-72
2023/03/07 00:34:21;;;;;;;3.28;1.70;;;;;;;;;;5056194;28;20082;-72
2023/03/07 00:36:47;;;;;;;2.95;1.60;;;;;;;;;;5055798;28;20044;-72
2023/03/07 00:39:14;;;;;;;3.17;1.30;;;;;;;;;;5072515;28;20087;-72
2023/03/07 00:41:40;;;;;;;3.75;1.27;;;;;;;;;;5071374;28;20131;-72
2023/03/07 00:44:06;;;;;;;4.68;1.08;;;;;;;;;;5052037;28;20669;-72
2023/03/07 00:46:32;;;;;;;7.32;1.58;;;;;;;;;;5036091;28;20271;-72
2023/03/07 00:48:58;;;;;;;3.13;0.93;;;;;;;;;;5052287;28;20069;-72
2023/03/07 00:51:24;;;;;;;3.50;0.88;;;;;;;;;;5051797;28;20044;-72
2023/03/07 00:53:50;;;;;;;5.20;1.00;;;;;;;;;;5052145;28;20106;-72
2023/03/07 00:56:18;;;;;;;4.53;1.05;;;;;;;;;;5052213;28;20071;-72
2023/03/07 00:58:44;;;;;;;3.33;0.88;;;;;;;;;;5051436;28;20048;-72
2023/03/07 01:01:11;;;;;;;3.72;0.80;;;;;;;;;;5052161;28;20148;-72
2023/03/07 01:03:38;;;;;;;2.40;0.90;;;;;;;;;;5052065;28;20048;-72
2023/03/07 01:06:05;;;;;;;2.42;0.70;;;;;;;;;;5051493;28;20391;-72
2023/03/07 01:08:31;;;;;;;5.90;0.95;;;;;;;;;;5052078;28;20047;-72
2023/03/07 01:10:58;;;;;;;2.70;0.88;;;;;;;;;;5035454;28;20460;-72
2023/03/07 01:13:24;;;;;;;2.60;0.93;;;;;;;;;;5050940;28;20506;-72
2023/03/07 01:15:51;;;;;;;2.30;1.05;;;;;;;;;;5051932;28;20168;-72
2023/03/07 01:18:16;;;;;;;1.85;0.80;;;;;;;;;;5051739;28;20048;-72
2023/03/07 01:20:43;;;;;;;3.15;0.80;;;;;;;;;;5051203;28;20400;-72
2023/03/07 01:23:09;;;;;;;3.53;1.02;;;;;;;;;;5055613;28;20461;-72
2023/03/07 01:25:39;;;;;;;2.85;1.05;;;;;;;;;;5071803;28;20033;-72
2023/03/07 01:28:05;;;;;;;2.70;1.35;;;;;;;;;;5071244;28;20570;-72
2023/03/07 01:30:31;;;;;;;4.97;1.08;;;;;;;;;;5071739;28;20113;-72
2023/03/07 01:32:58;;;;;;;3.80;1.60;;;;;;;;;;5054980;28;20492;-72
2023/03/07 01:35:24;;;;;;;6.63;1.30;;;;;;;;;;5071530;28;20032;-72
2023/03/07 01:37:51;;;;;;;6.60;1.40;;;;;;;;;;5071328;28;20047;-72
2023/03/07 01:40:18;;;;;;;5.85;1.40;;;;;;;;;;5071272;28;20376;-72
2023/03/07 01:42:44;;;;;;;9.32;1.40;;;;;;;;;;5051585;28;20463;-72
2023/03/07 01:45:13;;;;;;;5.60;1.48;;;;;;;;;;5050797;28;20091;-72
2023/03/07 01:47:40;;;;;;;6.68;1.63;;;;;;;;;;5034689;28;20048;-72
2023/03/07 01:50:14;;;;;;;8.02;1.98;;;;;;;;;;5051132;28;20091;-72
2023/03/07 01:52:52;;;;;;;7.35;1.52;;;;;;;;;;5034632;28;20049;-72
2023/03/07 01:55:20;;;;;;;8.07;1.40;;;;;;;;;;5034944;28;20037;-72
2023/03/07 01:57:47;;;;;;;2.90;1.20;;;;;;;;;;5050717;28;20036;-72
2023/03/07 02:00:18;;;;;;;5.38;1.27;;;;;;;;;;5051133;28;20037;-72
2023/03/07 02:02:47;;;;;;;5.32;1.67;;;;;;;;;;5051092;28;20041;-72
2023/03/07 02:05:15;;;;;;;6.82;1.35;;;;;;;;;;5050725;28;20045;-72
2023/03/07 02:07:46;;;;;;;7.18;1.70;;;;;;;;;;5051121;28;20076;-72
2023/03/07 02:10:13;;;;;;;9.50;1.50;;;;;;;;;;5051139;28;20045;-72
2023/03/07 02:12:40;;;;;;;6.25;1.45;;;;;;;;;;5050609;28;20495;-72
2023/03/07 02:15:08;;;;;;;5.32;1.00;;;;;;;;;;5051003;28;20078;-72
2023/03/07 02:17:34;;;;;;;10.63;1.50;;;;;;;;;;5034182;28;20041;-72
2023/03/07 02:20:09;;;;;;;7.95;1.15;;;;;;;;;;5050274;28;20044;-72
2023/03/07 02:22:35;;;;;;;6.18;1.20;;;;;;;;;;5050382;28;20056;-72
2023/03/07 02:25:04;;;;;;;3.60;1.00;;;;;;;;;;5070020;28;20060;-72
2023/03/07 02:27:33;;;;;;;8.55;1.60;;;;;;;;;;5053433;28;20460;-72
2023/03/07 02:29:59;;;;;;;4.97;1.17;;;;;;;;;;5053951;28;20045;-72
2023/03/07 02:32:25;;;;;;;10.38;1.58;;;;;;;;;;5070361;28;20036;-72
2023/03/07 02:34:51;;;;;;;8.73;1.17;;;;;;;;;;5070052;28;20733;-72
2023/03/07 02:37:24;;;;;;;8.77;1.20;;;;;;;;;;5053686;28;20040;-72
2023/03/07 02:39:50;;;;;;;7.05;1.30;;;;;;;;;;5070182;28;20048;-72
2023/03/07 02:42:19;;;;;;;4.90;1.15;;;;;;;;;;5063838;28;20037;-72
2023/03/07 02:44:46;;;;;;;9.60;1.27;;;;;;;;;;5049995;28;20049;-72
2023/03/07 02:47:12;;;;;;;10.48;1.42;;;;;;;;;;5050293;28;20036;-72
2023/03/07 02:49:38;;;;;;;8.93;1.73;;;;;;;;;;5049597;28;20044;-72
2023/03/07 02:52:04;;;;;;;11.30;1.30;;;;;;;;;;5033645;28;20083;-72
2023/03/07 02:54:30;;;;;;;10.07;1.95;;;;;;;;;;5050086;28;20045;-72
2023/03/07 02:56:57;;;;;;;7.65;1.38;;;;;;;;;;5049371;28;20045;-72
2023/03/07 02:59:23;;;;;;;9.88;1.23;;;;;;;;;;5033392;28;20079;-72
2023/03/07 03:01:49;;;;;;;8.70;1.33;;;;;;;;;;5050116;28;20415;-72
2023/03/07 03:04:15;;;;;;;7.10;1.50;;;;;;;;;;5049577;28;20491;-72
2023/03/07 03:06:41;;;;;;;10.10;2.22;;;;;;;;;;5049780;28;20070;-72
2023/03/07 03:09:07;;;;;;;12.13;1.55;;;;;;;;;;5049755;28;20388;-72
2023/03/07 03:11:33;;;;;;;6.53;1.15;;;;;;;;;;5049642;28;20050;-72
2023/03/07 03:13:59;;;;;;;11.65;1.50;;;;;;;;;;5032378;28;20037;-72
2023/03/07 03:16:25;;;;;;;13.95;1.60;;;;;;;;;;5049677;28;20051;-72
2023/03/07 03:18:51;;;;;;;11.95;1.48;;;;;;;;;;5049441;28;20048;-72
2023/03/07 03:21:17;;;;;;;8.45;1.00;;;;;;;;;;5048842;28;20044;-72
2023/03/07 03:23:43;;;;;;;10.60;1.35;;;;;;;;;;5054985;28;20123;-72
2023/03/07 03:26:10;;;;;;;13.10;2.13;;;;;;;;;;5049787;28;20475;-72
2023/03/07 03:28:37;;;;;;;10.68;1.85;;;;;;;;;;5048860;28;20037;-72
2023/03/07 03:31:04;;;;;;;7.65;1.27;;;;;;;;;;5049776;28;20044;-72
2023/03/07 03:33:30;;;;;;;10.63;1.58;;;;;;;;;;5049714;28;20131;-72
2023/03/07 03:35:57;;;;;;;7.25;1.10;;;;;;;;;;5031809;28;20076;-72
2023/03/07 03:38:23;;;;;;;7.68;1.45;;;;;;;;;;5049341;28;20049;-72
2023/03/07 03:40:49;;;;;;;9.55;1.45;;;;;;;;;;5049356;28;20179;-72
2023/03/07 03:43:16;;;;;;;11.95;1.35;;;;;;;;;;5062574;28;20045;-72
2023/03/07 03:45:42;;;;;;;8.18;1.77;;;;;;;;;;5052746;28;20033;-72
2023/03/07 03:48:08;;;;;;;8.73;1.10;;;;;;;;;;5056659;28;20476;-72
2023/03/07 03:50:34;;;;;;;7.55;0.90;;;;;;;;;;5048824;28;20037;-72
2023/03/07 03:53:01;;;;;;;9.90;1.27;;;;;;;;;;5049290;28;20041;-72
2023/03/07 03:55:27;;;;;;;17.02;1.60;;;;;;;;;;5032742;28;20143;-72
2023/03/07 03:57:53;;;;;;;13.07;1.38;;;;;;;;;;5048926;28;20033;-72
2023/03/07 04:00:19;;;;;;;5.22;1.15;;;;;;;;;;5049307;28;20044;-72
2023/03/07 04:02:46;;;;;;;7.72;1.08;;;;;;;;;;5049166;28;20041;-72
2023/03/07 04:05:12;;;;;;;10.13;1.35;;;;;;;;;;5048597;28;20084;-72
2023/03/07 04:07:38;;;;;;;8.93;1.30;;;;;;;;;;5049443;28;20083;-72
2023/03/07 04:10:04;;;;;;;13.48;1.52;;;;;;;;;;5049294;28;20045;-72
2023/03/07 04:12:31;;;;;;;7.28;1.25;;;;;;;;;;5048420;28;20107;-72
2023/03/07 04:14:57;;;;;;;14.68;1.77;;;;;;;;;;5049066;28;20044;-72
2023/03/07 04:17:23;;;;;;;12.23;1.55;;;;;;;;;;5049142;28;20086;-72
2023/03/07 04:19:49;;;;;;;3.00;0.90;;;;;;;;;;5048644;28;20037;-72
2023/03/07 04:22:15;;;;;;;8.38;0.93;;;;;;;;;;5048721;28;20049;-72
2023/03/07 04:24:41;;;;;;;9.70;1.52;;;;;;;;;;5065722;28;20048;-72
2023/03/07 04:27:07;;;;;;;7.68;1.48;;;;;;;;;;5068684;28;20379;-72
2023/03/07 04:29:33;;;;;;;9.93;1.48;;;;;;;;;;5069289;28;20052;-72
2023/03/07 04:31:59;;;;;;;8.55;1.45;;;;;;;;;;5068960;28;20045;-72
2023/03/07 04:34:25;;;;;;;6.45;1.08;;;;;;;;;;5068442;28;20435;-72
2023/03/07 04:36:51;;;;;;;7.88;1.27;;;;;;;;;;5052451;28;20044;-72
2023/03/07 04:39:17;;;;;;;5.55;1.10;;;;;;;;;;5068935;28;20037;-72
2023/03/07 04:41:43;;;;;;;8.18;1.40;;;;;;;;;;5067212;28;20091;-72
2023/03/07 04:44:10;;;;;;;9.38;1.30;;;;;;;;;;5048973;28;20045;-72
2023/03/07 04:46:36;;;;;;;8.93;1.70;;;;;;;;;;5049306;28;20179;-72
2023/03/07 04:49:02;;;;;;;15.00;1.75;;;;;;;;;;5051670;28;20048;-72
2023/03/07 04:51:28;;;;;;;9.88;1.25;;;;;;;;;;5052246;28;20037;-72
2023/03/07 04:53:54;;;;;;;9.75;1.27;;;;;;;;;;5035470;28;20044;-72
2023/03/07 04:56:20;;;;;;;8.85;1.27;;;;;;;;;;5051571;28;20048;-72
2023/03/07 04:58:46;;;;;;;9.05;1.20;;;;;;;;;;5052459;28;20767;-72
2023/03/07 05:01:13;;;;;;;10.43;1.45;;;;;;;;;;5051999;28;20053;-72
2023/03/07 05:03:39;;;;;;;6.90;0.90;;;;;;;;;;5051516;28;20076;-72
2023/03/07 05:06:06;;;;;;;7.95;1.08;;;;;;;;;;5052104;28;20041;-72
2023/03/07 05:08:33;;;;;;;10.75;1.63;;;;;;;;;;5051880;28;20080;-72
2023/03/07 05:10:59;;;;;;;7.25;1.20;;;;;;;;;;5051406;28;20036;-72
2023/03/07 05:13:26;;;;;;;13.18;1.27;;;;;;;;;;5035588;28;20098;-72
2023/03/07 05:15:53;;;;;;;6.63;1.13;;;;;;;;;;5035799;28;20048;-72
2023/03/07 05:18:19;;;;;;;9.35;1.30;;;;;;;;;;5035314;28;20549;-72
2023/03/07 05:20:46;;;;;;;8.68;1.23;;;;;;;;;;5052372;28;20483;-72
2023/03/07 05:23:12;;;;;;;5.90;1.20;;;;;;;;;;5039724;28;20053;-72
2023/03/07 05:25:38;;;;;;;9.93;2.08;;;;;;;;;;5071642;28;20559;-72
2023/03/07 05:28:04;;;;;;;6.40;1.38;;;;;;;;;;5072433;28;20036;-72
2023/03/07 05:30:30;;;;;;;9.20;2.03;;;;;;;;;;5055390;28;20045;-72
2023/03/07 05:32:56;;;;;;;5.75;1.10;;;;;;;;;;5071393;28;20077;-72
2023/03/07 05:35:23;;;;;;;9.30;1.20;;;;;;;;;;5072031;28;20040;-72
2023/03/07 05:37:50;;;;;;;8.18;1.70;;;;;;;;;;5072318;28;20040;-72
2023/03/07 05:40:17;;;;;;;8.43;1.55;;;;;;;;;;5054597;28;20036;-72
2023/03/07 05:42:44;;;;;;;6.85;1.27;;;;;;;;;;5062489;28;20055;-72
2023/03/07 05:45:10;;;;;;;8.30;1.17;;;;;;;;;;5051837;28;20041;-72
2023/03/07 05:47:37;;;;;;;10.57;1.30;;;;;;;;;;5051435;28;20075;-72
2023/03/07 05:50:04;;;;;;;6.57;1.20;;;;;;;;;;5051765;28;20075;-72
2023/03/07 05:52:30;;;;;;;8.75;1.23;;;;;;;;;;5051731;28;20041;-72
2023/03/07 05:54:56;;;;;;;6.28;1.42;;;;;;;;;;5034746;28;20074;-72
2023/03/07 05:57:22;;;;;;;11.30;1.40;;;;;;;;;;5051533;28;20052;-72
2023/03/07 05:59:49;;;;;;;6.20;1.05;;;;;;;;;;5051273;28;20090;-72
2023/03/07 06:02:15;;;;;;;4.53;1.02;;;;;;;;;;5050889;28;20045;-72
2023/03/07 06:04:41;;;;;;;8.40;1.33;;;;;;;;;;5034819;28;20098;-72
2023/03/07 06:07:07;;;;;;;10.38;1.20;;;;;;;;;;5051225;28;20080;-72
2023/03/07 06:09:33;;;;;;;11.57;1.40;;;;;;;;;;5050930;28;20499;-72
2023/03/07 06:11:59;;;;;;;12.98;2.13;;;;;;;;;;5051591;28;20036;-72
2023/03/07 06:14:25;;;;;;;8.10;1.30;;;;;;;;;;5051026;28;20041;-72
2023/03/07 06:16:51;;;;;;;8.35;1.15;;;;;;;;;;5050905;28;20487;-72
2023/03/07 06:19:17;;;;;;;10.60;1.60;;;;;;;;;;5051138;28;20059;-72
2023/03/07 06:21:44;;;;;;;9.15;1.38;;;;;;;;;;5050849;28;20180;-72
2023/03/07 06:24:10;;;;;;;7.63;1.17;;;;;;;;;;5046046;28;20048;-72
2023/03/07 06:26:36;;;;;;;7.10;1.48;;;;;;;;;;5070966;28;20437;-72
2023/03/07 06:29:02;;;;;;;13.30;1.70;;;;;;;;;;5071070;28;20040;-72
2023/03/07 06:31:28;;;;;;;8.48;1.55;;;;;;;;;;5070537;28;20174;-72
2023/03/07 06:33:54;;;;;;;9.00;1.20;;;;;;;;;;5070598;28;20036;-72
2023/03/07 06:36:20;;;;;;;9.07;1.80;;;;;;;;;;5053974;28;20098;-72
2023/03/07 06:38:46;;;;;;;9.77;1.13;;;;;;;;;;5070860;28;20390;-72
2023/03/07 06:41:13;;;;;;;10.10;1.35;;;;;;;;;;5070091;28;20486;-72
2023/03/07 06:43:39;;;;;;;5.15;1.77;;;;;;;;;;5050403;28;20064;-72
2023/03/07 06:46:05;;;;;;;4.20;0.95;;;;;;;;;;5050810;28;20484;-72
2023/03/07 06:48:33;;;;;;;5.38;1.42;;;;;;;;;;5049938;28;20041;-72
2023/03/07 06:50:59;;;;;;;11.32;1.35;;;;;;;;;;5051990;28;20900;-72
2023/03/07 06:53:25;;;;;;;9.88;2.47;;;;;;;;;;5051456;28;20057;-71
2023/03/07 06:55:51;;;;;;;9.93;1.67;;;;;;;;;;5055311;28;20079;-70
2023/03/07 06:58:18;;;;;;;9.00;1.50;;;;;;;;;;5049675;28;20041;-70
2023/03/07 07:00:44;;;;;;;7.72;1.35;;;;;;;;;;5050043;28;20053;-70
2023/03/07 07:03:14;;;;;;;8.50;1.48;;;;;;;;;;5049536;28;20106;-70
2023/03/07 07:05:40;;;;;;;8.65;1.27;;;;;;;;;;5049785;28;20048;-71
2023/03/07 07:08:06;;;;;;;8.98;1.10;;;;;;;;;;5049933;28;20041;-71
2023/03/07 07:10:32;;;;;;;10.02;1.17;;;;;;;;;;5048376;28;20483;-71
2023/03/07 07:12:58;;;;;;;7.72;1.00;;;;;;;;;;5049977;28;20037;-70
2023/03/07 07:15:24;;;;;;;10.68;1.80;;;;;;;;;;5049412;28;20036;-71
2023/03/07 07:17:51;;;;;;;7.82;0.98;;;;;;;;;;5049270;28;20045;-71
2023/03/07 07:20:17;;;;;;;9.50;1.60;;;;;;;;;;5049471;28;20041;-72
2023/03/07 07:22:43;;;;;;;6.53;1.23;;;;;;;;;;5049598;28;20734;-72
2023/03/07 07:25:09;;;;;;;6.95;1.23;;;;;;;;;;5049040;28;20041;-71
2023/03/07 07:27:35;;;;;;;8.57;1.10;;;;;;;;;;5044117;28;20475;-75
2023/03/07 07:30:02;;;;;;;9.07;1.02;;;;;;;;;;5069154;28;20096;-75
2023/03/07 07:32:28;;;;;;;8.32;1.40;;;;;;;;;;5050177;28;20048;-74
2023/03/07 07:34:54;;;;;;;8.77;1.17;;;;;;;;;;5049150;28;20131;-68
2023/03/07 07:37:20;;;;;;;8.55;1.55;;;;;;;;;;5050618;28;20037;-68
2023/03/07 07:39:46;;;;;;;7.63;1.40;;;;;;;;;;5048701;28;20535;-70
2023/03/07 07:42:12;;;;;;;8.52;1.00;;;;;;;;;;5052179;28;20123;-71
2023/03/07 07:44:38;;;;;;;15.75;1.60;;;;;;;;;;5049223;28;20082;-69
2023/03/07 07:47:04;;;;;;;8.63;1.42;;;;;;;;;;5043036;28;20472;-71
2023/03/07 07:49:30;;;;;;;7.75;1.67;;;;;;;;;;5061928;28;20105;-75
2023/03/07 07:51:56;;;;;;;12.23;2.13;;;;;;;;;;5041412;28;20123;-74
2023/03/07 07:54:22;;;;;;;11.45;1.90;;;;;;;;;;5048474;28;20144;-71
2023/03/07 07:56:48;;;;;;;9.77;1.48;;;;;;;;;;5059410;28;20052;-73
2023/03/07 07:59:14;;;;;;;9.45;1.52;;;;;;;;;;5049124;28;20072;-72
2023/03/07 08:01:40;;;;;;;9.75;1.40;;;;;;;;;;5053028;28;20105;-72
2023/03/07 08:04:07;;;;;;;9.60;1.17;;;;;;;;;;5062380;28;20531;-73
2023/03/07 08:06:33;;;;;;;8.65;1.30;;;;;;;;;;5048914;28;20091;-74
2023/03/07 08:08:59;;;;;;;10.23;1.65;;;;;;;;;;5047572;28;20124;-73
2023/03/07 08:11:25;;;;;;;5.32;1.30;;;;;;;;;;5056866;28;20547;-70
2023/03/07 08:13:52;;;;;;;11.15;1.35;;;;;;;;;;5050369;28;20475;-69
2023/03/07 08:16:19;;;;;;;9.90;2.00;;;;;;;;;;5048158;28;20128;-69
2023/03/07 08:18:56;;;;;;;6.82;1.27;;;;;;;;;;5040178;28;20387;-66
2023/03/07 08:21:23;;;;;;;15.43;1.85;;;;;;;;;;5044378;28;20107;-66
2023/03/07 08:23:49;;;;;;;9.35;2.30;;;;;;;;;;5044404;28;20053;-67
2023/03/07 08:26:16;;;;;;;6.13;1.10;;;;;;;;;;5045019;28;20048;-66
2023/03/07 08:28:42;;;;;;;6.43;1.20;;;;;;;;;;5044416;28;20156;-66
2023/03/07 08:31:15;;;;;;;6.35;1.58;;;;;;;;;;5044372;28;20483;-66
2023/03/07 08:33:41;;;;;;;6.78;1.30;;;;;;;;;;5045116;28;20040;-66
2023/03/07 08:36:08;;;;;;;12.65;1.27;;;;;;;;;;5044273;28;20840;-66
2023/03/07 08:38:34;;;;;;;7.55;1.08;;;;;;;;;;5043796;28;20044;-68
2023/03/07 08:41:00;;;;;;;9.15;1.52;;;;;;;;;;5043580;28;20086;-68
2023/03/07 08:43:28;;;;;;;6.72;1.15;;;;;;;;;;5048292;28;20438;-68
2023/03/07 08:45:54;;;;;;;6.07;1.20;;;;;;;;;;5045570;28;20052;-70
2023/03/07 08:48:20;;;;;;;8.90;1.73;;;;;;;;;;5045092;28;20041;-68
2023/03/07 08:50:46;;;;;;;15.30;2.58;;;;;;;;;;5047467;28;20045;-67
2023/03/07 08:53:16;;;;;;;11.93;2.13;;;;;;;;;;5046364;28;20049;-67
2023/03/07 08:55:45;;;;;;;11.98;2.70;;;;;;;;;;5048710;28;20035;-69
2023/03/07 08:58:11;;;;;;;12.82;2.15;;;;;;;;;;5050288;28;20045;-68
2023/03/07 09:00:37;;;;;;;9.63;2.50;;;;;;;;;;5047589;28;20041;-69
2023/03/07 09:03:04;;;;;;;12.07;2.30;;;;;;;;;;5045419;28;20063;-68
2023/03/07 09:05:30;;;;;;;11.02;2.30;;;;;;;;;;5048435;28;20640;-68
2023/03/07 09:07:57;;;;;;;10.23;2.10;;;;;;;;;;5048937;28;20090;-68
2023/03/07 09:10:23;;;;;;;10.95;2.15;;;;;;;;;;5045905;28;20098;-66
2023/03/07 09:12:50;;;;;;;10.45;2.20;;;;;;;;;;5048003;28;20116;-69
2023/03/07 09:15:17;;;;;;;8.13;1.80;;;;;;;;;;5046412;28;20052;-67
2023/03/07 09:17:43;;;;;;;11.18;2.00;;;;;;;;;;5048006;28;20483;-64
2023/03/07 09:20:10;;;;;;;7.63;1.42;;;;;;;;;;5046131;28;20028;-66
2023/03/07 09:22:37;;;;;;;5.97;1.30;;;;;;;;;;5047522;28;20057;-64
2023/03/07 09:25:03;;;;;;;10.70;1.58;;;;;;;;;;5047963;28;20036;-65
2023/03/07 09:27:29;;;;;;;11.35;1.58;;;;;;;;;;5049280;28;20045;-64
2023/03/07 09:29:55;;;;;;;4.70;1.30;;;;;;;;;;5049168;28;21791;-64
2023/03/07 09:32:21;;;;;;;6.22;1.20;;;;;;;;;;5048838;28;20090;-64
2023/03/07 09:34:47;;;;;;;10.25;1.30;;;;;;;;;;5048850;28;20164;-64
2023/03/07 09:37:13;;;;;;;7.00;1.15;;;;;;;;;;5046217;28;20041;-66
2023/03/07 09:39:39;;;;;;;7.78;1.45;;;;;;;;;;5047239;28;20136;-65
2023/03/07 09:42:09;;;;;;;6.15;1.00;;;;;;;;;;5046929;28;20147;-66
2023/03/07 09:44:51;;;;;;;4.93;0.88;;;;;;;;;;5047483;28;20373;-67
2023/03/07 09:47:17;;;;;;;3.83;0.80;;;;;;;;;;5031032;28;20124;-64
2023/03/07 09:49:46;;;;;;;5.53;0.90;;;;;;;;;;5048046;28;20045;-66
2023/03/07 09:52:15;;;;;;;6.00;0.88;;;;;;;;;;5045285;28;20124;-66
2023/03/07 09:54:43;;;;;;;7.47;0.90;;;;;;;;;;5046859;28;20029;-66
2023/03/07 09:57:22;;;;;;;4.10;0.85;;;;;;;;;;5047938;28;20771;-65
2023/03/07 09:59:51;;;;;;;4.85;0.80;;;;;;;;;;5046543;28;20120;-64
2023/03/07 10:02:18;;;;;;;6.57;0.93;;;;;;;;;;5047053;28;20037;-64
2023/03/07 10:04:50;;;;;;;3.75;0.70;;;;;;;;;;5045711;28;20159;-64
2023/03/07 10:07:18;;;;;;;3.60;0.60;;;;;;;;;;5046902;28;20033;-64
2023/03/07 10:09:45;;;;;;;3.90;0.50;;;;;;;;;;5048469;28;20690;-65
2023/03/07 10:12:11;;;;;;;2.55;0.60;;;;;;;;;;5047768;28;20021;-63
2023/03/07 10:14:39;;;;;;;1.38;0.65;;;;;;;;;;5047965;28;20360;-65
2023/03/07 10:17:24;;;;;;;3.47;0.55;;;;;;;;;;5047738;28;20036;-64
2023/03/07 10:19:52;;;;;;;2.08;0.57;;;;;;;;;;5047805;28;20044;-63
2023/03/07 10:22:22;;;;;;;2.28;0.40;;;;;;;;;;5045871;28;20060;-63
2023/03/07 10:24:57;;;;;;;7.95;0.70;;;;;;;;;;5049936;28;20091;-64
2023/03/07 10:27:25;;;;;;;1.65;0.55;;;;;;;;;;5047230;28;20148;-64
2023/03/07 10:29:53;;;;;;;1.83;0.50;;;;;;;;;;5046424;28;20194;-64
2023/03/07 10:32:21;;;;;;;1.35;0.57;;;;;;;;;;5049149;28;20052;-64
2023/03/07 10:34:51;;;;;;;7.97;1.73;;;;;;;;;;5046733;28;20052;-64
2023/03/07 10:37:18;;;;;;;4.07;0.95;;;;;;;;;;5045391;28;20037;-64
2023/03/07 10:39:55;;;;;;;6.15;0.93;;;;;;;;;;5046147;28;20412;-62
2023/03/07 10:42:22;;;;;;;4.15;0.90;;;;;;;;;;5047706;28;20463;-63
2023/03/07 10:44:49;;;;;;;5.95;0.77;;;;;;;;;;5052837;28;20056;-65
2023/03/07 10:47:23;;;;;;;5.32;1.10;;;;;;;;;;5048425;28;20113;-65
2023/03/07 10:49:52;;;;;;;3.17;0.80;;;;;;;;;;5044305;28;20049;-64
2023/03/07 10:52:18;;;;;;;8.27;1.65;;;;;;;;;;5044725;28;20059;-65
2023/03/07 10:54:44;;;;;;;8.18;1.48;;;;;;;;;;5045138;28;20467;-66
2023/03/07 10:57:15;;;;;;;5.25;1.25;;;;;;;;;;5046069;28;20716;-66
2023/03/07 10:59:48;;;;;;;7.10;1.10;;;;;;;;;;5045926;28;20087;-67
2023/03/07 11:02:32;;;;;;;6.63;0.90;;;;;;;;;;5044820;28;20050;-67
2023/03/07 11:04:58;;;;;;;4.75;1.30;;;;;;;;;;5045816;28;20044;-66
2023/03/07 11:07:27;;;;;;;5.30;0.93;;;;;;;;;;5045138;28;20095;-66
2023/03/07 11:09:53;;;;;;;5.75;0.90;;;;;;;;;;5044816;28;20060;-67
2023/03/07 11:12:20;;;;;;;14.30;1.33;;;;;;;;;;5047241;28;20705;-67
2023/03/07 11:14:51;;;;;;;4.63;0.82;;;;;;;;;;5047250;28;20049;-66
2023/03/07 11:17:26;;;;;;;6.28;1.23;;;;;;;;;;5046577;28;20076;-66
2023/03/07 11:19:55;;;;;;;11.32;1.10;;;;;;;;;;5045732;28;20048;-66
2023/03/07 11:22:23;;;;;;;6.53;1.60;;;;;;;;;;5059703;28;20072;-66
2023/03/07 11:24:55;;;;;;;9.32;1.40;;;;;;;;;;5059139;28;20048;-67
2023/03/07 11:27:31;;;;;;;9.88;1.40;;;;;;;;;;5059700;28;20044;-66
2023/03/07 11:30:20;;;;;;;9.35;0.93;;;;;;;;;;5052802;28;20052;-67
2023/03/07 11:32:51;;;;;;;5.90;0.75;;;;;;;;;;5051686;28;20147;-67
2023/03/07 11:35:20;;;;;;;5.75;0.85;;;;;;;;;;5050891;28;20052;-66
2023/03/07 11:37:49;;;;;;;3.40;0.60;;;;;;;;;;5050006;28;20061;-67
2023/03/07 11:40:18;;;;;;;2.53;1.15;;;;;;;;;;5050578;28;20064;-66
2023/03/07 11:42:51;;;;;;;5.95;2.15;;;;;;;;;;5061117;28;20484;-66
2023/03/07 11:45:26;;;;;;;3.33;0.63;;;;;;;;;;5049749;28;20499;-66
2023/03/07 11:48:00;;;;;;;3.67;0.82;;;;;;;;;;5055109;28;20040;-66
2023/03/07 11:50:28;;;;;;;5.38;1.10;;;;;;;;;;5050797;28;20036;-66
2023/03/07 11:52:57;;;;;;;6.82;0.90;;;;;;;;;;5061426;28;20033;-65
2023/03/07 11:55:32;;;;;;;7.40;0.75;;;;;;;;;;5049764;28;20522;-66
2023/03/07 11:58:07;;;;;;;5.38;0.88;;;;;;;;;;5052107;28;20052;-65
2023/03/07 12:00:48;;;;;;;5.57;1.20;;;;;;;;;;5057118;28;20132;-65
2023/03/07 12:03:17;;;;;;;5.97;1.38;;;;;;;;;;5061990;28;20696;-65
2023/03/07 12:05:43;;;;;;;6.35;1.15;;;;;;;;;;5058205;28;20077;-65
2023/03/07 12:08:19;;;;;;;10.25;2.63;;;;;;;;;;5060653;28;20033;-65
2023/03/07 12:11:08;;;;;;;8.32;1.65;;;;;;;;;;5069779;28;20083;-65
2023/03/07 12:13:37;;;;;;;9.48;1.33;;;;;;;;;;5060786;28;20478;-65
2023/03/07 12:16:22;;;;;;;6.32;2.03;;;;;;;;;;5053160;28;20515;-65
2023/03/07 12:19:06;;;;;;;7.57;1.70;;;;;;;;;;5053595;28;20045;-64
2023/03/07 12:21:44;;;;;;;4.90;0.90;;;;;;;;;;5057643;28;20098;-65
2023/03/07 12:24:32;;;;;;;5.95;1.30;;;;;;;;;;5066127;28;20045;-64
2023/03/07 12:27:02;;;;;;;6.15;1.67;;;;;;;;;;5065341;28;20037;-64
2023/03/07 12:29:34;;;;;;;8.63;1.65;;;;;;;;;;5057505;28;20365;-64
2023/03/07 12:32:00;;;;;;;;;;;;;;;;;;5060320;28;20040;-65
2023/03/07 12:34:33;;;;;;;8.20;1.08;;;;;;;;;;5055807;28;20509;-65
2023/03/07 12:37:25;;;;;;;7.20;1.50;;;;;;;;;;5057604;28;20036;-66
2023/03/07 12:39:53;;;;;;;5.63;1.55;;;;;;;;;;5053340;28;20168;-66
2023/03/07 12:42:31;;;;;;;7.43;1.42;;;;;;;;;;5054974;28;20041;-66
2023/03/07 12:45:10;;;;;;;8.13;1.42;;;;;;;;;;5058461;28;20055;-66
2023/03/07 12:47:58;;;;;;;6.22;1.20;;;;;;;;;;5061729;28;20059;-66
2023/03/07 12:50:33;;;;;;;4.15;0.90;;;;;;;;;;5066935;28;20438;-65
2023/03/07 12:53:05;;;;;;;7.85;1.30;;;;;;;;;;5060692;28;20039;-64
2023/03/07 12:55:37;;;;;;;6.63;1.73;;;;;;;;;;5055738;28;20063;-65
2023/03/07 12:58:03;;;;;;;5.70;1.10;;;;;;;;;;5059038;28;20044;-66
2023/03/07 13:00:30;;;;;;;7.53;1.75;;;;;;;;;;5061322;28;21093;-65
2023/03/07 13:02:59;;;;;;;9.93;1.25;;;;;;;;;;5065711;28;20044;-65
2023/03/07 13:05:25;;;;;;;9.18;1.10;;;;;;;;;;5052000;28;20063;-65
2023/03/07 13:07:52;;;;;;;8.48;1.55;;;;;;;;;;5055404;28;20121;-65
2023/03/07 13:10:19;;;;;;;14.00;1.52;;;;;;;;;;5052348;28;20124;-64
2023/03/07 13:12:46;;;;;;;8.30;1.10;;;;;;;;;;5051096;28;20041;-65
2023/03/07 13:15:18;;;;;;;6.13;0.98;;;;;;;;;;5052023;28;20041;-66
2023/03/07 13:17:43;;;;;;;9.30;1.60;;;;;;;;;;5061008;28;20049;-66
2023/03/07 13:20:18;;;;;;;8.32;1.38;;;;;;;;;;5056423;28;20766;-66
2023/03/07 13:22:44;;;;;;;7.82;1.15;;;;;;;;;;5062522;28;20588;-65
2023/03/07 13:25:20;;;;;;;4.28;1.08;;;;;;;;;;5058492;28;20049;-66
2023/03/07 13:27:50;;;;;;;6.78;1.17;;;;;;;;;;5051099;28;20390;-64
2023/03/07 13:30:20;;;;;;;7.25;1.30;;;;;;;;;;5051417;28;20048;-65
2023/03/07 13:32:55;;;;;;;6.75;1.25;;;;;;;;;;5062565;28;20052;-65
2023/03/07 13:35:24;;;;;;;8.70;1.23;;;;;;;;;;5058379;28;20037;-65
2023/03/07 13:37:55;;;;;;;4.07;1.23;;;;;;;;;;5056348;28;20127;-64
2023/03/07 13:40:36;;;;;;;8.07;1.10;;;;;;;;;;5053791;28;20045;-63
2023/03/07 13:43:03;;;;;;;7.65;1.38;;;;;;;;;;5051449;28;20131;-65
2023/03/07 13:45:38;;;;;;;5.57;0.98;;;;;;;;;;5054168;28;20037;-65
2023/03/07 13:48:04;;;;;;;5.22;1.10;;;;;;;;;;5054468;28;20059;-65
2023/03/07 13:50:33;;;;;;;7.03;1.08;;;;;;;;;;5063763;28;20032;-64
2023/03/07 13:53:03;;;;;;;6.47;1.42;;;;;;;;;;5056939;28;20115;-65
2023/03/07 13:55:37;;;;;;;7.22;1.40;;;;;;;;;;5063943;28;20044;-65
2023/03/07 13:58:16;;;;;;;6.30;0.93;;;;;;;;;;5061319;28;20048;-65
2023/03/07 14:00:49;;;;;;;10.55;1.08;;;;;;;;;;5059097;28;20399;-66
2023/03/07 14:03:21;;;;;;;7.60;1.65;;;;;;;;;;5054481;28;20040;-67
2023/03/07 14:05:47;;;;;;;7.82;1.08;;;;;;;;;;5053222;28;20052;-65
2023/03/07 14:08:15;;;;;;;9.02;2.33;;;;;;;;;;5060367;28;20049;-65
2023/03/07 14:10:44;;;;;;;7.68;1.33;;;;;;;;;;5066039;28;20056;-65
2023/03/07 14:13:19;;;;;;;9.45;1.38;;;;;;;;;;5056342;28;20037;-63
2023/03/07 14:15:50;;;;;;;5.85;1.00;;;;;;;;;;5059346;28;20048;-63
2023/03/07 14:18:35;;;;;;;5.43;1.20;;;;;;;;;;5058912;28;20036;-66
2023/03/07 14:21:09;;;;;;;5.82;1.02;;;;;;;;;;5062252;28;20068;-65
2023/03/07 14:23:54;;;;;;;3.70;1.00;;;;;;;;;;5052170;28;20048;-65
2023/03/07 14:26:20;;;;;;;7.40;1.05;;;;;;;;;;5055925;28;20051;-65
2023/03/07 14:29:03;;;;;;;8.45;1.38;;;;;;;;;;5055197;28;20029;-65
2023/03/07 14:31:36;;;;;;;7.07;1.00;;;;;;;;;;5059893;28;20048;-65
2023/03/07 14:34:14;;;;;;;5.20;0.90;;;;;;;;;;5055856;28;20545;-65
2023/03/07 14:36:40;;;;;;;2.83;1.10;;;;;;;;;;5078027;28;20172;-64
2023/03/07 14:39:11;;;;;;;6.95;1.42;;;;;;;;;;5050468;28;20045;-66
2023/03/07 14:41:46;;;;;;;8.70;1.02;;;;;;;;;;5064417;28;20744;-66
2023/03/07 14:44:21;;;;;;;3.80;0.60;;;;;;;;;;5053496;28;20037;-66
2023/03/07 14:47:06;;;;;;;8.57;1.08;;;;;;;;;;5054347;28;20106;-66